Main page
METAR-TAF:

METAR-TAF

Airports :

Paro Airport

Thimphu, India

latitude: 27-24-32N, longitude: 89-25-14E, elevation: 2235 m

Current weather observation

The report was made 13 hours and 49 minutes ago, at 10:30 UTC
Wind 10 kt from the South/Southeast
Temperature 11°C
Humidity 40%
Pressure 1015 hPa
Visibility 10 km or more
Scattered clouds at a height of 3000 ft
Broken clouds at a height of 6000 ft

METAR: VQPR 111030Z 16010KT 9999 SCT030 BKN060 11/M02 Q1015

Time: 06:19 (00:19 UTC)


TAF: missing

Weather observations and forecasts of more than 4000 airports (METAR and TAF reports).

The available stations are represented by yellow and red dots on the map.

Hover mouse over dot to see the name of the station.

Then click to see weather observations and forecasts.

To change the map : click on the green buttons with a black cross to zoom in, on the green button with a dash to zoom out, or on the green arrows for adjacent maps.


METAR-TAF: